createdAt,value
2019-01-28T00:01:35.588Z,61.17
2019-01-28T00:04:07.526Z,62.87
2019-01-28T00:06:38.948Z,63.87
2019-01-28T00:09:10.396Z,62.37
2019-01-28T00:11:41.895Z,63.43
2019-01-28T00:14:13.498Z,67.83
2019-01-28T00:16:44.935Z,67.20
2019-01-28T00:19:16.481Z,73.17
2019-01-28T00:21:48.078Z,56.57
2019-01-28T00:24:19.592Z,58.53
2019-01-28T00:26:51.001Z,59.77
2019-01-28T00:29:22.475Z,65.60
2019-01-28T00:31:53.977Z,71.30
2019-01-28T00:34:26.455Z,62.97
2019-01-28T00:36:57.965Z,66.33
2019-01-28T00:39:29.429Z,62.80
2019-01-28T00:42:00.850Z,66.03
2019-01-28T00:44:32.355Z,62.17
2019-01-28T00:47:03.984Z,62.23
2019-01-28T00:49:35.450Z,68.70
2019-01-28T00:52:06.922Z,68.30
2019-01-28T00:54:38.464Z,68.67
2019-01-28T00:57:09.929Z,60.97
2019-01-28T00:59:41.492Z,61.37
2019-01-28T01:02:12.928Z,50.30
2019-01-28T01:04:44.404Z,45.23
2019-01-28T01:07:16.565Z,51.83
2019-01-28T01:09:48.129Z,53.50
2019-01-28T01:12:19.655Z,53.17
2019-01-28T01:14:51.244Z,48.83
2019-01-28T01:17:22.720Z,42.33
2019-01-28T01:19:54.244Z,39.43
2019-01-28T01:22:25.710Z,69.33
2019-01-28T01:24:57.183Z,49.20
2019-01-28T01:27:28.632Z,72.97
2019-01-28T01:30:00.223Z,84.40
2019-01-28T01:32:31.699Z,74.43
2019-01-28T01:35:03.152Z,74.63
2019-01-28T01:37:34.640Z,64.00
2019-01-28T01:40:07.939Z,66.77
2019-01-28T01:42:39.396Z,77.60
2019-01-28T01:45:12.356Z,74.00
2019-01-28T01:47:44.846Z,73.57
2019-01-28T01:50:16.336Z,74.90
2019-01-28T01:52:47.819Z,55.23
2019-01-28T01:55:19.287Z,52.23
2019-01-28T01:57:50.793Z,57.67
2019-01-28T02:00:22.324Z,34.23
2019-01-28T02:02:53.857Z,77.12
2019-01-28T02:05:25.285Z,59.67
2019-01-28T02:07:56.769Z,67.73
2019-01-28T02:10:28.264Z,71.40
2019-01-28T02:12:59.705Z,45.80
2019-01-28T02:15:31.156Z,38.33
2019-01-28T02:18:02.599Z,34.60
2019-01-28T02:20:34.055Z,40.65
2019-01-28T02:23:05.841Z,59.33
2019-01-28T02:25:37.271Z,36.83
2019-01-28T02:28:08.787Z,36.60
2019-01-28T02:30:40.377Z,33.70
2019-01-28T02:33:11.807Z,26.33
2019-01-28T02:35:43.345Z,26.80
2019-01-28T02:38:14.769Z,24.97
2019-01-28T02:40:46.329Z,30.90
2019-01-28T02:43:17.783Z,24.40
2019-01-28T02:45:49.292Z,29.27
2019-01-28T02:48:20.744Z,27.73
2019-01-28T02:50:52.257Z,28.30
2019-01-28T02:53:23.659Z,29.33
2019-01-28T02:55:55.237Z,42.70
2019-01-28T02:58:26.684Z,43.00
2019-01-28T03:00:58.209Z,42.97
2019-01-28T03:03:29.816Z,50.03
2019-01-28T03:06:01.340Z,42.53
2019-01-28T03:08:32.748Z,63.40
2019-01-28T03:11:04.322Z,52.50
2019-01-28T03:13:35.751Z,51.77
2019-01-28T03:16:07.318Z,57.87
2019-01-28T03:18:38.797Z,51.87
2019-01-28T03:21:10.246Z,46.73
2019-01-28T03:23:41.740Z,58.60
2019-01-28T03:26:13.233Z,56.07
2019-01-28T03:28:44.786Z,54.70
2019-01-28T03:31:16.339Z,50.87
2019-01-28T03:33:47.920Z,64.87
2019-01-28T03:36:19.350Z,79.27
2019-01-28T03:38:50.763Z,66.27
2019-01-28T03:41:22.252Z,82.47
2019-01-28T03:43:54.028Z,78.47
2019-01-28T03:46:25.495Z,73.90
2019-01-28T03:48:56.913Z,86.10
2019-01-28T03:51:28.441Z,77.45
2019-01-28T03:54:00.135Z,69.27
2019-01-28T03:56:31.566Z,72.27
2019-01-28T03:59:03.073Z,56.13
2019-01-28T04:01:34.553Z,56.30
2019-01-28T04:04:06.201Z,48.67
2019-01-28T04:06:37.636Z,72.15
2019-01-28T04:09:10.305Z,61.30
2019-01-28T04:11:41.982Z,58.67
2019-01-28T04:14:13.499Z,56.13
2019-01-28T04:16:45.092Z,51.13
2019-01-28T04:19:16.537Z,56.03
2019-01-28T04:21:48.119Z,44.97
2019-01-28T04:24:19.584Z,43.43
2019-01-28T04:26:52.079Z,47.20
2019-01-28T04:29:23.512Z,46.00
2019-01-28T04:31:55.328Z,41.83
2019-01-28T04:34:26.754Z,45.00
2019-01-28T04:36:58.260Z,36.17
2019-01-28T04:39:29.697Z,42.33
2019-01-28T04:42:01.178Z,40.70
2019-01-28T04:44:32.682Z,47.58
2019-01-28T04:47:04.246Z,61.63
2019-01-28T04:49:36.050Z,49.67
2019-01-28T04:52:07.822Z,42.57
2019-01-28T04:54:40.467Z,40.67
2019-01-28T04:57:11.925Z,53.83
2019-01-28T04:59:43.420Z,43.63
2019-01-28T05:02:14.979Z,48.52
2019-01-28T05:04:46.430Z,60.67
2019-01-28T05:07:17.995Z,57.03
2019-01-28T05:09:56.438Z,62.77
2019-01-28T05:12:27.964Z,51.67
2019-01-28T05:14:59.425Z,45.60
2019-01-28T05:17:30.930Z,47.53
2019-01-28T05:20:02.488Z,51.80
2019-01-28T05:22:34.066Z,39.60
2019-01-28T05:25:06.249Z,56.53
2019-01-28T05:27:37.763Z,42.83
2019-01-28T05:30:12.538Z,43.60
2019-01-28T05:32:44.047Z,40.23
2019-01-28T05:35:16.796Z,38.83
2019-01-28T05:37:48.321Z,35.97
2019-01-28T05:40:21.452Z,39.40
2019-01-28T05:42:53.119Z,36.70
2019-01-28T05:45:24.796Z,39.27
2019-01-28T05:47:56.392Z,47.43
2019-01-28T05:50:29.275Z,40.13
2019-01-28T05:53:00.929Z,53.13
2019-01-28T05:55:32.367Z,48.02
2019-01-28T05:58:03.863Z,59.57
2019-01-28T06:00:43.935Z,49.17
2019-01-28T06:03:15.653Z,44.03
2019-01-28T06:05:47.131Z,47.00
2019-01-28T06:08:18.558Z,56.23
2019-01-28T06:10:50.061Z,52.67
2019-01-28T06:13:21.504Z,49.30
2019-01-28T06:15:53.009Z,50.67
2019-01-28T06:18:24.548Z,56.30
2019-01-28T06:20:56.020Z,48.90
2019-01-28T06:23:28.707Z,52.57
2019-01-28T06:26:00.227Z,50.27
2019-01-28T06:28:31.673Z,44.90
2019-01-28T06:31:03.166Z,49.63
2019-01-28T06:33:34.804Z,57.60
2019-01-28T06:36:06.255Z,52.80
2019-01-28T06:38:37.763Z,49.30
2019-01-28T06:41:09.172Z,43.17
2019-01-28T06:43:40.670Z,40.13
2019-01-28T06:46:12.116Z,50.23
2019-01-28T06:48:43.542Z,53.23
2019-01-28T06:51:15.020Z,60.00
2019-01-28T06:53:46.645Z,57.53
2019-01-28T06:56:18.163Z,71.23
2019-01-28T06:58:49.601Z,53.50
2019-01-28T07:01:21.048Z,48.57
2019-01-28T07:03:52.561Z,43.37
2019-01-28T07:06:24.173Z,33.20
2019-01-28T07:08:55.666Z,18.17
2019-01-28T07:11:27.203Z,8.93
2019-01-28T07:13:58.672Z,6.37
2019-01-28T07:16:30.074Z,3.13
2019-01-28T07:19:01.569Z,4.90
2019-01-28T07:21:33.085Z,3.07
2019-01-28T07:24:04.904Z,3.53
2019-01-28T07:26:36.384Z,4.65
2019-01-28T07:29:07.836Z,3.73
2019-01-28T07:31:39.305Z,5.30
2019-01-28T07:34:10.797Z,5.13
2019-01-28T07:36:42.430Z,2.57
2019-01-28T07:39:13.900Z,2.70
2019-01-28T07:41:45.402Z,3.50
2019-01-28T07:44:16.904Z,4.40
2019-01-28T07:46:48.574Z,7.87
2019-01-28T07:49:20.217Z,5.97
2019-01-28T07:51:51.902Z,5.50
2019-01-28T07:54:23.421Z,3.20
2019-01-28T07:56:54.948Z,3.17
2019-01-28T07:59:26.398Z,2.37
2019-01-28T08:01:57.808Z,3.30
2019-01-28T08:04:29.310Z,3.33
2019-01-28T08:07:01.672Z,3.37
2019-01-28T08:09:33.169Z,5.07
2019-01-28T08:12:04.698Z,5.00
2019-01-28T08:14:36.277Z,4.97
2019-01-28T08:17:07.742Z,4.23
2019-01-28T08:19:39.269Z,4.30
2019-01-28T08:22:12.395Z,10.77
2019-01-28T08:24:44.000Z,7.03
2019-01-28T08:27:15.530Z,28.37
2019-01-28T08:29:47.032Z,30.83
2019-01-28T08:32:18.509Z,9.33
2019-01-28T08:34:50.041Z,4.10
2019-01-28T08:37:21.516Z,8.50
2019-01-28T08:39:53.020Z,3.97
2019-01-28T08:42:24.492Z,5.10
2019-01-28T08:44:56.217Z,4.77
2019-01-28T08:47:27.702Z,7.07
2019-01-28T08:49:59.295Z,4.63
2019-01-28T08:52:30.779Z,3.80
2019-01-28T08:55:02.258Z,6.67
2019-01-28T08:57:33.784Z,4.57
2019-01-28T09:00:08.138Z,5.00
2019-01-28T09:02:39.673Z,4.63
2019-01-28T09:05:11.610Z,3.70
2019-01-28T09:07:44.519Z,5.55
2019-01-28T09:10:16.893Z,6.27
2019-01-28T09:12:48.316Z,4.93
2019-01-28T09:15:20.077Z,4.50
2019-01-28T09:17:51.691Z,6.43
2019-01-28T09:20:24.339Z,5.10
2019-01-28T09:22:55.793Z,8.07
2019-01-28T09:25:27.245Z,11.25
2019-01-28T09:27:58.756Z,6.57
2019-01-28T09:30:31.780Z,7.83
2019-01-28T09:33:03.316Z,6.13
2019-01-28T09:35:35.013Z,4.47
2019-01-28T09:38:06.802Z,6.57
2019-01-28T09:40:38.695Z,5.90
2019-01-28T09:43:10.410Z,5.83
2019-01-28T09:45:43.440Z,18.50
2019-01-28T09:48:16.144Z,16.17
2019-01-28T09:50:47.828Z,11.03
2019-01-28T09:53:19.253Z,8.30
2019-01-28T09:55:50.768Z,6.30
2019-01-28T09:58:22.246Z,5.70
2019-01-28T10:00:53.758Z,7.03
2019-01-28T10:03:25.168Z,7.33
2019-01-28T10:05:56.572Z,6.20
2019-01-28T10:08:28.036Z,7.67
2019-01-28T10:10:59.567Z,8.27
2019-01-28T10:13:31.001Z,6.77
2019-01-28T10:16:02.811Z,5.17
2019-01-28T10:18:41.605Z,4.12
2019-01-28T10:21:07.563Z,11.23
2019-01-28T10:23:39.013Z,7.37
2019-01-28T10:26:10.440Z,4.60
2019-01-28T10:28:41.837Z,5.93
2019-01-28T10:31:13.316Z,6.43
2019-01-28T10:33:44.992Z,5.33
2019-01-28T10:36:16.486Z,6.57
2019-01-28T10:38:48.066Z,8.80
2019-01-28T10:41:19.475Z,8.57
2019-01-28T10:43:50.874Z,5.80
2019-01-28T10:46:22.434Z,8.07
2019-01-28T10:48:53.937Z,5.85
2019-01-28T10:51:25.568Z,4.70
2019-01-28T10:53:57.056Z,8.47
2019-01-28T10:56:28.548Z,3.87
2019-01-28T10:59:00.064Z,3.87
2019-01-28T11:01:31.599Z,6.67
2019-01-28T11:04:03.203Z,5.37
2019-01-28T11:06:34.645Z,8.18
2019-01-28T11:09:08.162Z,8.40
2019-01-28T11:11:39.885Z,6.63
2019-01-28T11:14:11.424Z,6.43
2019-01-28T11:16:43.083Z,12.43
2019-01-28T11:19:14.575Z,6.50
2019-01-28T11:21:46.080Z,5.60
2019-01-28T11:24:17.510Z,113.30
2019-01-28T11:26:49.232Z,28.07
2019-01-28T11:29:20.908Z,13.50
2019-01-28T11:31:52.466Z,13.07
2019-01-28T11:34:24.000Z,5.23
2019-01-28T11:36:55.548Z,7.47
2019-01-28T11:39:26.987Z,4.17
2019-01-28T11:41:58.492Z,13.47
2019-01-28T11:44:29.907Z,5.25
2019-01-28T11:47:01.543Z,4.17
2019-01-28T11:49:33.213Z,12.10
2019-01-28T11:52:04.674Z,9.40
2019-01-28T11:54:36.142Z,7.77
2019-01-28T11:57:07.541Z,30.23
2019-01-28T11:59:38.959Z,8.67
2019-01-28T12:02:10.405Z,9.90
2019-01-28T12:04:41.817Z,9.77
2019-01-28T12:07:13.341Z,6.93
2019-01-28T12:09:44.822Z,2.90
2019-01-28T12:12:16.371Z,6.37
2019-01-28T12:14:47.879Z,8.38
2019-01-28T12:17:19.392Z,4.07
2019-01-28T12:19:50.892Z,6.95
2019-01-28T12:22:22.386Z,3.00
2019-01-28T12:24:53.905Z,2.73
2019-01-28T12:27:25.363Z,5.75
2019-01-28T12:29:56.817Z,3.73
2019-01-28T12:32:28.355Z,4.93
2019-01-28T12:34:59.824Z,11.80
2019-01-28T12:37:32.443Z,5.43
2019-01-28T12:40:04.998Z,6.03
2019-01-28T12:42:36.503Z,9.20
2019-01-28T12:45:09.810Z,3.90
2019-01-28T12:47:41.360Z,5.57
2019-01-28T12:50:13.099Z,5.47
2019-01-28T12:52:44.605Z,5.27
2019-01-28T12:55:17.312Z,7.27
2019-01-28T12:57:48.734Z,5.08
2019-01-28T13:00:23.419Z,4.97
2019-01-28T13:02:54.903Z,5.07
2019-01-28T13:05:26.661Z,3.90
2019-01-28T13:07:58.483Z,3.87
2019-01-28T13:10:29.894Z,3.43
2019-01-28T13:13:01.398Z,7.72
2019-01-28T13:15:32.899Z,3.27
2019-01-28T13:18:04.684Z,4.03
2019-01-28T13:20:37.194Z,3.00
2019-01-28T13:23:08.674Z,3.53
2019-01-28T13:25:40.173Z,4.20
2019-01-28T13:28:11.596Z,4.77
2019-01-28T13:30:43.116Z,6.13
2019-01-28T13:33:16.476Z,4.20
2019-01-28T13:35:47.920Z,4.40
2019-01-28T13:38:19.481Z,5.75
2019-01-28T13:40:50.903Z,4.77
2019-01-28T13:43:22.333Z,6.13
2019-01-28T13:45:53.800Z,5.77
2019-01-28T13:48:25.253Z,3.70
2019-01-28T13:50:56.696Z,3.93
2019-01-28T13:53:28.289Z,25.10
2019-01-28T13:55:59.735Z,10.30
2019-01-28T13:58:31.229Z,7.23
2019-01-28T14:01:02.831Z,4.80
2019-01-28T14:03:34.234Z,5.67
2019-01-28T14:06:05.872Z,4.93
2019-01-28T14:08:37.316Z,4.93
2019-01-28T14:11:08.756Z,3.33
2019-01-28T14:13:40.389Z,3.00
2019-01-28T14:16:11.845Z,2.93
2019-01-28T14:18:43.303Z,2.73
2019-01-28T14:21:14.753Z,4.20
2019-01-28T14:23:46.181Z,7.53
2019-01-28T14:26:17.722Z,21.20
2019-01-28T14:28:49.191Z,8.27
2019-01-28T14:31:20.608Z,3.27
2019-01-28T14:33:52.064Z,5.33
2019-01-28T14:36:23.515Z,3.87
2019-01-28T14:38:55.019Z,4.03
2019-01-28T14:41:26.595Z,6.03
2019-01-28T14:43:58.114Z,3.13
2019-01-28T14:46:29.603Z,4.10
2019-01-28T14:49:01.194Z,3.40
2019-01-28T14:51:32.638Z,3.37
2019-01-28T14:54:04.279Z,3.87
2019-01-28T14:56:35.725Z,6.37
2019-01-28T14:59:07.212Z,6.77
2019-01-28T15:01:38.666Z,4.27
2019-01-28T15:04:10.314Z,5.77
2019-01-28T15:06:41.748Z,4.87
2019-01-28T15:09:13.486Z,5.67
2019-01-28T15:11:44.988Z,4.57
2019-01-28T15:14:16.432Z,8.63
2019-01-28T15:16:47.921Z,3.03
2019-01-28T15:19:19.408Z,2.73
2019-01-28T15:21:50.931Z,3.30
2019-01-28T15:24:22.330Z,4.43
2019-01-28T15:26:53.960Z,6.87
2019-01-28T15:29:25.472Z,4.97
2019-01-28T15:31:56.874Z,6.73
2019-01-28T15:34:28.394Z,3.87
2019-01-28T15:36:59.855Z,5.27
2019-01-28T15:39:31.257Z,4.63
2019-01-28T15:42:02.700Z,6.47
2019-01-28T15:44:34.188Z,1.77
2019-01-28T15:47:05.838Z,4.47
2019-01-28T15:49:37.254Z,4.67
2019-01-28T15:52:08.725Z,4.17
2019-01-28T15:54:40.198Z,3.77
2019-01-28T15:57:11.765Z,2.67
2019-01-28T15:59:43.182Z,4.33
2019-01-28T16:02:14.753Z,3.00
2019-01-28T16:04:46.172Z,3.27
2019-01-28T16:07:17.614Z,6.30
2019-01-28T16:09:49.097Z,16.50
2019-01-28T16:12:20.652Z,13.60
2019-01-28T16:14:52.124Z,7.47
2019-01-28T16:17:23.940Z,4.20
2019-01-28T16:19:55.529Z,4.57
2019-01-28T16:22:26.925Z,5.60
2019-01-28T16:24:58.316Z,4.23
2019-01-28T16:27:29.866Z,8.57
2019-01-28T16:30:01.419Z,3.10
2019-01-28T16:32:33.011Z,4.83
2019-01-28T16:35:04.799Z,3.30
2019-01-28T16:37:36.329Z,5.77
2019-01-28T16:40:09.787Z,4.10
2019-01-28T16:42:42.371Z,4.40
2019-01-28T16:45:15.058Z,3.33
2019-01-28T16:47:46.894Z,10.63
2019-01-28T16:50:26.785Z,31.10
2019-01-28T16:52:54.203Z,97.93
2019-01-28T16:55:25.693Z,16.60
2019-01-28T16:57:57.857Z,8.77
2019-01-28T17:00:31.581Z,5.17
2019-01-28T17:03:03.178Z,3.87
2019-01-28T17:05:34.652Z,4.13
2019-01-28T17:08:06.701Z,3.53
2019-01-28T17:10:38.498Z,2.97
2019-01-28T17:13:10.369Z,5.07
2019-01-28T17:15:41.882Z,7.27
2019-01-28T17:18:13.390Z,5.60
2019-01-28T17:20:44.878Z,4.80
2019-01-28T17:23:16.425Z,4.33
2019-01-28T17:25:49.309Z,5.07
2019-01-28T17:28:20.821Z,3.57
2019-01-28T17:30:52.567Z,3.57
2019-01-28T17:33:24.136Z,5.00
2019-01-28T17:35:55.565Z,4.13
2019-01-28T17:38:27.173Z,3.97
2019-01-28T17:40:58.646Z,4.60
2019-01-28T17:43:30.228Z,4.53
2019-01-28T17:46:01.740Z,4.73
2019-01-28T17:48:33.344Z,3.65
2019-01-28T17:51:04.925Z,4.53
2019-01-28T17:53:36.372Z,2.97
2019-01-28T17:56:07.895Z,5.80
2019-01-28T17:58:39.328Z,3.50
2019-01-28T18:01:10.850Z,2.33
2019-01-28T18:03:42.310Z,4.73
2019-01-28T18:06:13.772Z,4.43
2019-01-28T18:08:45.256Z,2.50
2019-01-28T18:11:16.813Z,2.60
2019-01-28T18:13:48.336Z,3.07
2019-01-28T18:16:19.949Z,4.17
2019-01-28T18:18:51.416Z,4.20
2019-01-28T18:21:23.508Z,2.30
2019-01-28T18:23:55.327Z,4.53
2019-01-28T18:26:26.781Z,2.77
2019-01-28T18:28:58.223Z,4.00
2019-01-28T18:31:29.783Z,3.47
2019-01-28T18:34:01.246Z,18.57
2019-01-28T18:36:32.782Z,133.13
2019-01-28T18:39:06.173Z,48.93
2019-01-28T18:41:37.852Z,12.63
2019-01-28T18:44:09.930Z,11.43
2019-01-28T18:46:42.559Z,4.35
2019-01-28T18:49:15.675Z,4.43
2019-01-28T18:51:47.435Z,3.93
2019-01-28T18:54:18.992Z,3.03
2019-01-28T18:56:50.541Z,2.37
2019-01-28T18:59:22.059Z,3.10
2019-01-28T19:01:53.615Z,3.40
2019-01-28T19:04:25.322Z,44.73
2019-01-28T19:07:19.816Z,235.83
2019-01-28T19:10:10.233Z,53.90
2019-01-28T19:12:57.014Z,32.60
2019-01-28T19:15:50.506Z,8.17
2019-01-28T19:18:39.484Z,8.30
2019-01-28T19:21:17.804Z,5.53
2019-01-28T19:23:49.274Z,5.03
2019-01-28T19:26:20.703Z,6.90
2019-01-28T19:28:52.253Z,2.80
2019-01-28T19:31:23.685Z,5.33
2019-01-28T19:33:55.334Z,2.93
2019-01-28T19:36:26.880Z,3.57
2019-01-28T19:38:58.518Z,3.37
2019-01-28T19:41:29.995Z,2.40
2019-01-28T19:44:01.521Z,2.50
2019-01-28T19:46:32.934Z,3.17
2019-01-28T19:49:04.649Z,3.13
2019-01-28T19:51:36.281Z,1.90
2019-01-28T19:54:08.108Z,1.83
2019-01-28T19:56:39.676Z,1.57
2019-01-28T19:59:11.165Z,2.37
2019-01-28T20:01:42.682Z,3.60
2019-01-28T20:04:14.187Z,2.43
2019-01-28T20:06:45.846Z,4.63
2019-01-28T20:09:17.411Z,3.37
2019-01-28T20:11:48.982Z,3.07
2019-01-28T20:14:21.063Z,5.47
2019-01-28T20:16:52.810Z,4.03
2019-01-28T20:19:24.417Z,2.30
2019-01-28T20:21:55.877Z,5.80
2019-01-28T20:24:27.482Z,3.83
2019-01-28T20:26:59.033Z,3.02
2019-01-28T20:29:30.669Z,4.63
2019-01-28T20:32:02.197Z,5.20
2019-01-28T20:34:33.719Z,6.37
2019-01-28T20:37:05.359Z,7.47
2019-01-28T20:39:37.763Z,3.40
2019-01-28T20:42:09.165Z,4.33
2019-01-28T20:44:40.642Z,5.80
2019-01-28T20:47:12.209Z,3.77
2019-01-28T20:49:43.800Z,4.20
2019-01-28T20:52:15.386Z,4.08
2019-01-28T20:54:47.089Z,4.17
2019-01-28T20:57:18.702Z,3.77
2019-01-28T20:59:51.243Z,4.17
2019-01-28T21:02:22.939Z,4.67
2019-01-28T21:04:54.416Z,3.33
2019-01-28T21:07:25.920Z,6.62
2019-01-28T21:09:57.502Z,3.23
2019-01-28T21:12:29.930Z,5.20
2019-01-28T21:15:01.404Z,7.90
2019-01-28T21:17:33.774Z,16.27
2019-01-28T21:20:07.248Z,7.00
2019-01-28T21:22:38.728Z,3.63
2019-01-28T21:25:13.045Z,2.40
2019-01-28T21:27:44.582Z,4.37
2019-01-28T21:30:28.058Z,3.27
2019-01-28T21:32:59.490Z,2.77
2019-01-28T21:36:08.381Z,3.20
2019-01-28T21:38:45.774Z,2.83
2019-01-28T21:41:22.872Z,3.40
2019-01-28T21:43:54.479Z,5.07
2019-01-28T21:46:26.500Z,2.43
2019-01-28T21:48:58.195Z,3.60
2019-01-28T21:51:29.717Z,2.58
2019-01-28T21:54:01.262Z,3.30
2019-01-28T21:56:33.056Z,3.67
2019-01-28T21:59:04.739Z,3.17
2019-01-28T22:01:36.201Z,2.97
2019-01-28T22:04:08.253Z,5.07
2019-01-28T22:06:39.977Z,4.60
2019-01-28T22:09:11.625Z,3.40
2019-01-28T22:11:43.108Z,3.00
2019-01-28T22:14:14.657Z,2.77
2019-01-28T22:16:46.139Z,3.70
2019-01-28T22:19:17.725Z,3.83
2019-01-28T22:21:50.012Z,3.40
2019-01-28T22:24:21.447Z,5.43
2019-01-28T22:26:53.881Z,3.47
2019-01-28T22:29:25.466Z,3.20
2019-01-28T22:31:56.952Z,2.40
2019-01-28T22:34:28.457Z,3.03
2019-01-28T22:36:59.951Z,4.40
2019-01-28T22:39:31.520Z,2.97
2019-01-28T22:42:03.691Z,2.83
2019-01-28T22:44:37.169Z,3.10
2019-01-28T22:47:08.616Z,3.33
2019-01-28T22:49:40.236Z,4.07
2019-01-28T22:52:11.773Z,2.50
2019-01-28T22:54:43.383Z,1.90
2019-01-28T22:57:15.007Z,2.97
2019-01-28T22:59:46.578Z,2.53
2019-01-28T23:02:18.117Z,2.57
2019-01-28T23:04:49.580Z,4.77
2019-01-28T23:07:21.009Z,3.07
2019-01-28T23:09:52.394Z,3.57
2019-01-28T23:12:23.818Z,3.70
2019-01-28T23:14:55.235Z,1.77
2019-01-28T23:17:26.765Z,3.97
2019-01-28T23:19:59.949Z,3.40
2019-01-28T23:22:33.259Z,2.12
2019-01-28T23:25:05.961Z,1.53
2019-01-28T23:27:37.410Z,1.93
2019-01-28T23:30:10.347Z,2.43
2019-01-28T23:32:41.732Z,3.67
2019-01-28T23:35:13.492Z,1.13
2019-01-28T23:37:44.961Z,1.30
2019-01-28T23:40:16.409Z,4.70
2019-01-28T23:42:48.505Z,2.57
2019-01-28T23:45:19.903Z,2.47
2019-01-28T23:47:51.340Z,2.20
2019-01-28T23:50:22.761Z,1.93
2019-01-28T23:52:54.244Z,3.40
2019-01-28T23:55:25.720Z,1.80
2019-01-28T23:57:57.408Z,1.97
